Time;durP1;ratioP1;P1;durP2;ratioP2;P2;SDS_P1;SDS_P2;PMS_P1;PMS_P2;Temp;Humidity;BMP_temperature;BMP_pressure;BME280_temperature;BME280_humidity;BME280_pressure;Samples;Min_cycle;Max_cycle;Signal;HPM_P1;HPM_P2
2020/12/19 00:02:16;;;;;;;13.65;4.70;;;;;;;;;;5031978;28;20283;-73
2020/12/19 00:04:41;;;;;;;19.43;9.63;;;;;;;;;;5031495;28;20080;-73
2020/12/19 00:07:06;;;;;;;15.13;7.40;;;;;;;;;;5032007;28;20752;-73
2020/12/19 00:09:31;;;;;;;18.52;8.10;;;;;;;;;;5032096;28;20704;-73
2020/12/19 00:11:57;;;;;;;13.57;6.43;;;;;;;;;;5031836;28;20032;-73
2020/12/19 00:14:22;;;;;;;15.77;8.90;;;;;;;;;;5032398;28;20385;-72
2020/12/19 00:16:47;;;;;;;19.60;7.20;;;;;;;;;;5032761;28;20264;-73
2020/12/19 00:19:13;;;;;;;11.63;4.55;;;;;;;;;;5031684;28;20025;-73
2020/12/19 00:21:38;;;;;;;16.95;8.57;;;;;;;;;;5014292;28;20126;-73
2020/12/19 00:24:04;;;;;;;18.63;9.20;;;;;;;;;;5032211;28;20033;-73
2020/12/19 00:26:30;;;;;;;15.05;8.43;;;;;;;;;;5031968;28;20799;-73
2020/12/19 00:28:55;;;;;;;16.92;7.82;;;;;;;;;;5030423;28;20398;-73
2020/12/19 00:31:23;;;;;;;16.73;7.43;;;;;;;;;;5014118;28;20017;-72
2020/12/19 00:33:48;;;;;;;10.73;5.60;;;;;;;;;;5031949;28;20104;-73
2020/12/19 00:36:13;;;;;;;17.52;6.32;;;;;;;;;;5031638;28;20580;-73
2020/12/19 00:38:38;;;;;;;15.90;7.67;;;;;;;;;;5031664;28;20044;-73
2020/12/19 00:41:03;;;;;;;9.90;5.87;;;;;;;;;;5030517;28;20645;-73
2020/12/19 00:43:28;;;;;;;15.57;6.43;;;;;;;;;;5031299;28;20275;-73
2020/12/19 00:45:54;;;;;;;9.63;5.10;;;;;;;;;;5031775;28;20025;-73
2020/12/19 00:48:20;;;;;;;9.70;4.85;;;;;;;;;;5032666;28;20259;-73
2020/12/19 00:50:45;;;;;;;11.43;5.18;;;;;;;;;;5030583;28;20021;-73
2020/12/19 00:53:10;;;;;;;12.43;4.73;;;;;;;;;;5031405;28;20026;-73
2020/12/19 00:55:35;;;;;;;12.30;6.13;;;;;;;;;;5030371;28;20705;-72
2020/12/19 00:58:01;;;;;;;13.98;6.63;;;;;;;;;;5031340;28;20276;-73
2020/12/19 01:00:26;;;;;;;7.10;3.42;;;;;;;;;;5031487;28;20037;-73
2020/12/19 01:02:51;;;;;;;18.33;8.30;;;;;;;;;;5030820;28;20032;-73
2020/12/19 01:05:16;;;;;;;14.13;6.50;;;;;;;;;;5030988;28;20640;-73
2020/12/19 01:07:41;;;;;;;14.63;6.55;;;;;;;;;;5031237;28;20272;-73
2020/12/19 01:10:08;;;;;;;10.13;5.55;;;;;;;;;;5030589;28;20036;-73
2020/12/19 01:12:33;;;;;;;17.75;8.38;;;;;;;;;;5031025;28;20827;-73
2020/12/19 01:14:59;;;;;;;17.42;8.43;;;;;;;;;;5031202;28;20426;-73
2020/12/19 01:17:24;;;;;;;14.65;7.95;;;;;;;;;;5031686;28;20037;-72
2020/12/19 01:19:49;;;;;;;11.63;6.13;;;;;;;;;;5031108;28;20489;-74
2020/12/19 01:22:14;;;;;;;12.27;5.30;;;;;;;;;;5030957;28;20028;-73
2020/12/19 01:24:39;;;;;;;15.50;7.37;;;;;;;;;;5030560;28;20403;-74
2020/12/19 01:27:04;;;;;;;12.03;6.53;;;;;;;;;;5034418;28;20354;-74
2020/12/19 01:29:30;;;;;;;13.17;6.73;;;;;;;;;;5033844;28;20741;-74
2020/12/19 01:31:55;;;;;;;16.93;7.93;;;;;;;;;;5030586;28;20351;-73
2020/12/19 01:34:20;;;;;;;15.10;8.45;;;;;;;;;;5029936;28;20271;-73
2020/12/19 01:36:46;;;;;;;19.15;6.22;;;;;;;;;;5030108;28;20057;-73
2020/12/19 01:39:11;;;;;;;13.68;7.28;;;;;;;;;;5030682;28;20059;-73
2020/12/19 01:41:37;;;;;;;15.25;8.25;;;;;;;;;;5024694;28;20021;-73
2020/12/19 01:44:03;;;;;;;12.23;6.65;;;;;;;;;;5030473;28;20108;-73
2020/12/19 01:46:31;;;;;;;19.00;8.73;;;;;;;;;;5030924;28;20061;-73
2020/12/19 01:48:57;;;;;;;18.35;6.97;;;;;;;;;;5030917;28;20028;-73
2020/12/19 01:51:23;;;;;;;15.02;7.75;;;;;;;;;;5045196;22;20065;-68
2020/12/19 01:53:50;;;;;;;15.90;8.77;;;;;;;;;;5036303;28;20046;-67
2020/12/19 01:56:19;;;;;;;14.73;7.68;;;;;;;;;;5033850;28;20103;-67
2020/12/19 01:58:45;;;;;;;13.60;7.50;;;;;;;;;;5049315;28;20104;-68
2020/12/19 02:01:14;;;;;;;17.73;8.83;;;;;;;;;;5043082;28;20116;-67
2020/12/19 02:03:39;;;;;;;16.52;9.70;;;;;;;;;;5036480;28;20323;-67
2020/12/19 02:06:06;;;;;;;17.27;8.23;;;;;;;;;;5032683;28;20048;-67
2020/12/19 02:08:32;;;;;;;15.95;8.88;;;;;;;;;;5037471;28;20794;-67
2020/12/19 02:10:57;;;;;;;18.60;7.50;;;;;;;;;;5034334;28;20069;-67
2020/12/19 02:13:22;;;;;;;15.27;8.23;;;;;;;;;;5047901;28;20120;-67
2020/12/19 02:15:47;;;;;;;14.73;7.43;;;;;;;;;;5039708;28;20612;-67
2020/12/19 02:18:12;;;;;;;17.00;9.00;;;;;;;;;;5035619;28;20331;-67
2020/12/19 02:20:38;;;;;;;19.95;7.80;;;;;;;;;;5030256;28;20148;-66
2020/12/19 02:23:04;;;;;;;13.45;6.63;;;;;;;;;;5040167;28;20060;-67
2020/12/19 02:25:39;;;;;;;13.10;6.90;;;;;;;;;;5034155;28;20036;-67
2020/12/19 02:28:06;;;;;;;18.80;7.05;;;;;;;;;;5044308;28;20035;-67
2020/12/19 02:30:32;;;;;;;10.13;5.13;;;;;;;;;;5040467;28;20009;-67
2020/12/19 02:32:57;;;;;;;16.05;8.82;;;;;;;;;;5044661;28;20465;-67
2020/12/19 02:35:22;;;;;;;8.73;5.53;;;;;;;;;;5046656;28;20030;-67
2020/12/19 02:37:48;;;;;;;14.10;7.40;;;;;;;;;;5030108;28;20037;-67
2020/12/19 02:40:13;;;;;;;14.63;7.82;;;;;;;;;;5046981;28;20048;-67
2020/12/19 02:42:38;;;;;;;20.45;10.93;;;;;;;;;;5032748;28;20025;-67
2020/12/19 02:45:03;;;;;;;19.03;9.83;;;;;;;;;;5040802;28;20521;-67
2020/12/19 02:47:28;;;;;;;16.60;9.20;;;;;;;;;;5031430;28;20260;-67
2020/12/19 02:49:54;;;;;;;12.07;6.63;;;;;;;;;;5032149;28;20119;-67
2020/12/19 02:52:19;;;;;;;18.67;9.60;;;;;;;;;;5041855;28;20029;-67
2020/12/19 02:54:44;;;;;;;7.60;3.60;;;;;;;;;;5047108;28;20264;-67
2020/12/19 02:57:09;;;;;;;9.63;4.97;;;;;;;;;;5034704;28;20030;-67
2020/12/19 02:59:34;;;;;;;20.80;10.43;;;;;;;;;;5051960;28;20652;-67
2020/12/19 03:01:59;;;;;;;17.63;9.83;;;;;;;;;;5036568;28;20266;-67
2020/12/19 03:04:25;;;;;;;14.25;7.40;;;;;;;;;;5039627;28;20775;-67
2020/12/19 03:06:50;;;;;;;18.40;8.95;;;;;;;;;;5033256;28;20290;-67
2020/12/19 03:09:18;;;;;;;17.02;7.38;;;;;;;;;;5043344;28;20279;-67
2020/12/19 03:11:43;;;;;;;19.23;9.82;;;;;;;;;;5047407;28;20264;-67
2020/12/19 03:14:08;;;;;;;13.90;6.53;;;;;;;;;;5035712;28;20385;-67
2020/12/19 03:16:33;;;;;;;22.77;9.50;;;;;;;;;;5043539;28;20313;-67
2020/12/19 03:18:58;;;;;;;10.83;5.77;;;;;;;;;;5033347;28;20717;-67
2020/12/19 03:21:23;;;;;;;14.37;7.33;;;;;;;;;;5039206;28;20276;-67
2020/12/19 03:23:48;;;;;;;23.20;9.65;;;;;;;;;;5046798;28;20272;-67
2020/12/19 03:26:14;;;;;;;18.98;7.97;;;;;;;;;;5044516;28;20061;-66
2020/12/19 03:28:39;;;;;;;14.88;7.28;;;;;;;;;;5038098;28;20411;-67
2020/12/19 03:31:04;;;;;;;14.35;7.53;;;;;;;;;;5047456;28;20117;-66
2020/12/19 03:33:29;;;;;;;14.43;6.80;;;;;;;;;;5035735;28;20444;-67
2020/12/19 03:35:54;;;;;;;14.03;7.73;;;;;;;;;;5034511;28;20459;-67
2020/12/19 03:38:20;;;;;;;10.20;5.80;;;;;;;;;;5046224;28;20259;-67
2020/12/19 03:40:45;;;;;;;12.35;5.85;;;;;;;;;;5042732;28;20041;-67
2020/12/19 03:43:10;;;;;;;10.05;5.40;;;;;;;;;;5038525;28;20017;-67
2020/12/19 03:45:35;;;;;;;17.33;9.90;;;;;;;;;;5048855;28;20435;-67
2020/12/19 03:48:00;;;;;;;19.38;10.60;;;;;;;;;;5033168;28;20266;-67
2020/12/19 03:50:25;;;;;;;21.85;9.82;;;;;;;;;;5032615;28;20021;-67
2020/12/19 03:52:51;;;;;;;10.43;6.47;;;;;;;;;;5032161;28;20268;-66
2020/12/19 03:55:16;;;;;;;13.38;6.63;;;;;;;;;;5032257;28;20037;-67
2020/12/19 03:57:42;;;;;;;20.60;10.73;;;;;;;;;;5046391;28;20056;-67
2020/12/19 04:00:08;;;;;;;18.88;10.45;;;;;;;;;;5041884;28;20587;-66
2020/12/19 04:02:33;;;;;;;21.58;11.27;;;;;;;;;;5039221;28;20096;-66
2020/12/19 04:04:59;;;;;;;12.38;6.43;;;;;;;;;;5045003;28;20036;-67
2020/12/19 04:07:24;;;;;;;14.27;6.18;;;;;;;;;;5037738;28;20025;-67
2020/12/19 04:09:49;;;;;;;22.07;10.93;;;;;;;;;;5047873;28;20030;-67
2020/12/19 04:12:16;;;;;;;10.73;5.80;;;;;;;;;;5041898;28;20312;-66
2020/12/19 04:14:41;;;;;;;14.82;6.80;;;;;;;;;;5032779;28;20021;-66
2020/12/19 04:17:07;;;;;;;19.47;5.73;;;;;;;;;;5044917;28;20024;-67
2020/12/19 04:19:33;;;;;;;18.80;6.82;;;;;;;;;;5031490;28;20310;-66
2020/12/19 04:21:58;;;;;;;13.02;5.93;;;;;;;;;;5044560;28;20138;-65
2020/12/19 04:24:23;;;;;;;18.95;9.40;;;;;;;;;;5043018;28;20034;-66
2020/12/19 04:26:48;;;;;;;14.30;7.07;;;;;;;;;;5035433;28;20477;-66
2020/12/19 04:29:14;;;;;;;20.33;9.40;;;;;;;;;;5051480;28;20032;-67
2020/12/19 04:31:39;;;;;;;20.60;11.43;;;;;;;;;;5036568;28;20628;-66
2020/12/19 04:34:04;;;;;;;19.17;9.37;;;;;;;;;;5039603;28;20021;-66
2020/12/19 04:36:29;;;;;;;20.03;9.07;;;;;;;;;;5039133;28;20694;-67
2020/12/19 04:38:54;;;;;;;9.38;5.28;;;;;;;;;;5033024;28;20287;-64
2020/12/19 04:41:20;;;;;;;20.43;8.63;;;;;;;;;;5033204;28;20811;-66
2020/12/19 04:43:45;;;;;;;23.80;10.75;;;;;;;;;;5033238;28;20268;-66
2020/12/19 04:46:10;;;;;;;17.20;8.43;;;;;;;;;;5047346;28;20024;-67
2020/12/19 04:48:35;;;;;;;19.58;8.63;;;;;;;;;;5032166;28;20016;-65
2020/12/19 04:51:01;;;;;;;18.50;9.98;;;;;;;;;;5033457;28;20725;-67
2020/12/19 04:53:26;;;;;;;24.08;9.75;;;;;;;;;;5038574;28;20032;-65
2020/12/19 04:55:51;;;;;;;15.33;8.43;;;;;;;;;;5040460;28;20123;-65
2020/12/19 04:58:21;;;;;;;13.43;8.00;;;;;;;;;;5040598;28;20279;-67
2020/12/19 05:00:47;;;;;;;13.18;7.40;;;;;;;;;;5043787;28;20021;-66
2020/12/19 05:03:12;;;;;;;15.45;7.55;;;;;;;;;;5035653;28;20037;-66
2020/12/19 05:05:40;;;;;;;18.30;8.55;;;;;;;;;;5032349;28;20038;-66
2020/12/19 05:08:05;;;;;;;20.85;10.32;;;;;;;;;;5032022;28;20374;-66
2020/12/19 05:10:31;;;;;;;14.57;8.00;;;;;;;;;;5047891;28;20070;-66
2020/12/19 05:12:56;;;;;;;20.30;9.60;;;;;;;;;;5036527;28;20029;-66
2020/12/19 05:15:22;;;;;;;18.65;8.18;;;;;;;;;;5033380;28;20031;-67
2020/12/19 05:17:51;;;;;;;22.98;12.07;;;;;;;;;;5042843;28;20025;-67
2020/12/19 05:20:17;;;;;;;15.40;7.80;;;;;;;;;;5031784;28;20028;-66
2020/12/19 05:22:44;;;;;;;16.08;8.43;;;;;;;;;;5040311;28;20412;-66
2020/12/19 05:25:09;;;;;;;16.70;9.07;;;;;;;;;;5042114;28;20032;-66
2020/12/19 05:27:35;;;;;;;14.40;7.35;;;;;;;;;;5032766;28;20006;-66
2020/12/19 05:30:04;;;;;;;15.30;7.60;;;;;;;;;;5043901;28;20511;-67
2020/12/19 05:32:32;;;;;;;24.23;12.27;;;;;;;;;;5016899;28;20485;-66
2020/12/19 05:34:57;;;;;;;17.17;8.52;;;;;;;;;;5040700;28;20075;-67
2020/12/19 05:37:22;;;;;;;13.77;6.93;;;;;;;;;;5049210;28;20428;-67
2020/12/19 05:39:53;;;;;;;17.57;7.00;;;;;;;;;;5032605;28;20275;-67
2020/12/19 05:42:22;;;;;;;18.55;10.70;;;;;;;;;;5041817;28;20264;-67
2020/12/19 05:44:47;;;;;;;17.58;8.35;;;;;;;;;;5040354;28;20489;-67
2020/12/19 05:47:13;;;;;;;19.20;10.10;;;;;;;;;;5041442;28;20085;-66
2020/12/19 05:49:38;;;;;;;16.60;6.85;;;;;;;;;;5035492;28;20265;-67
2020/12/19 05:52:03;;;;;;;16.93;7.50;;;;;;;;;;5036911;28;20424;-66
2020/12/19 05:54:30;;;;;;;19.25;9.75;;;;;;;;;;5045399;28;20397;-67
2020/12/19 05:56:56;;;;;;;16.23;7.47;;;;;;;;;;5036113;28;20017;-66
2020/12/19 05:59:21;;;;;;;9.20;5.00;;;;;;;;;;5048704;28;20028;-66
2020/12/19 06:01:47;;;;;;;18.92;9.93;;;;;;;;;;5032646;28;20029;-67
2020/12/19 06:04:13;;;;;;;15.00;6.60;;;;;;;;;;5042876;28;20051;-66
2020/12/19 06:06:44;;;;;;;14.55;6.57;;;;;;;;;;5045041;28;20079;-66
2020/12/19 06:09:09;;;;;;;17.20;7.07;;;;;;;;;;5045824;28;20430;-66
2020/12/19 06:11:42;;;;;;;22.35;10.88;;;;;;;;;;5043128;28;20112;-67
2020/12/19 06:14:10;;;;;;;16.92;8.48;;;;;;;;;;5035474;28;20056;-66
2020/12/19 06:16:41;;;;;;;17.10;7.70;;;;;;;;;;5033142;28;20025;-66
2020/12/19 06:19:06;;;;;;;;;;;;;;;;;;5031450;28;20504;-66
2020/12/19 06:21:31;;;;;;;10.85;6.93;;;;;;;;;;5034345;28;20349;-66
2020/12/19 06:23:56;;;;;;;16.80;7.30;;;;;;;;;;5030398;28;20040;-66
2020/12/19 06:26:33;;;;;;;17.97;8.73;;;;;;;;;;5045827;28;20390;-66
2020/12/19 06:28:58;;;;;;;13.52;7.03;;;;;;;;;;5033124;28;20766;-66
2020/12/19 06:31:24;;;;;;;21.50;11.20;;;;;;;;;;5034240;28;20112;-66
2020/12/19 06:33:50;;;;;;;11.90;7.20;;;;;;;;;;5034303;28;20264;-67
2020/12/19 06:36:20;;;;;;;19.50;9.40;;;;;;;;;;5042777;28;20272;-66
2020/12/19 06:38:46;;;;;;;17.02;7.47;;;;;;;;;;5046089;28;20064;-66
2020/12/19 06:41:30;;;;;;;17.48;9.18;;;;;;;;;;5029923;28;20025;-66
2020/12/19 06:44:19;;;;;;;14.43;7.05;;;;;;;;;;5032886;28;20035;-67
2020/12/19 06:46:44;;;;;;;11.45;5.75;;;;;;;;;;5026166;28;20061;-66
2020/12/19 06:49:24;;;;;;;22.02;11.68;;;;;;;;;;5040862;28;20064;-66
2020/12/19 06:52:06;;;;;;;16.42;7.88;;;;;;;;;;5029878;28;20124;-66
2020/12/19 06:54:33;;;;;;;16.55;7.15;;;;;;;;;;5043174;28;20033;-66
2020/12/19 06:56:59;;;;;;;17.58;7.15;;;;;;;;;;5037197;28;20060;-67
2020/12/19 06:59:25;;;;;;;12.73;7.18;;;;;;;;;;5039618;28;20052;-67
2020/12/19 07:01:50;;;;;;;12.23;6.57;;;;;;;;;;5040480;28;20109;-66
2020/12/19 07:04:41;;;;;;;19.42;7.85;;;;;;;;;;5039388;28;20505;-67
2020/12/19 07:07:08;;;;;;;20.42;10.48;;;;;;;;;;5030913;28;20048;-67
2020/12/19 07:09:33;;;;;;;20.33;10.68;;;;;;;;;;5029090;28;20032;-66
2020/12/19 07:11:58;;;;;;;32.85;11.48;;;;;;;;;;5029099;28;20025;-66
2020/12/19 07:14:24;;;;;;;17.55;10.43;;;;;;;;;;5024396;28;20044;-67
2020/12/19 07:16:49;;;;;;;17.95;6.85;;;;;;;;;;5044293;28;20075;-67
2020/12/19 07:19:17;;;;;;;26.63;9.80;;;;;;;;;;5029646;28;20057;-66
2020/12/19 07:21:43;;;;;;;12.23;6.78;;;;;;;;;;5031343;28;20049;-67
2020/12/19 07:24:08;;;;;;;17.90;7.53;;;;;;;;;;5040301;28;20049;-67
2020/12/19 07:26:34;;;;;;;16.05;7.65;;;;;;;;;;5035562;28;20025;-67
2020/12/19 07:28:59;;;;;;;17.85;8.32;;;;;;;;;;5046507;28;20488;-66
2020/12/19 07:31:24;;;;;;;16.95;9.48;;;;;;;;;;5039987;28;20026;-67
2020/12/19 07:33:49;;;;;;;13.60;6.88;;;;;;;;;;5046087;28;20117;-67
2020/12/19 07:36:15;;;;;;;21.23;8.77;;;;;;;;;;5046513;28;20056;-67
2020/12/19 07:38:41;;;;;;;14.23;7.13;;;;;;;;;;5037293;28;20280;-66
2020/12/19 07:41:06;;;;;;;19.63;9.77;;;;;;;;;;5042526;28;20018;-67
2020/12/19 07:43:31;;;;;;;11.90;4.97;;;;;;;;;;5039723;28;20032;-66
2020/12/19 07:45:57;;;;;;;12.60;7.47;;;;;;;;;;5046932;28;20280;-66
2020/12/19 07:48:22;;;;;;;17.67;9.40;;;;;;;;;;5044730;28;20270;-66
2020/12/19 07:50:47;;;;;;;18.83;8.07;;;;;;;;;;5033416;28;20033;-67
2020/12/19 07:53:12;;;;;;;16.00;7.65;;;;;;;;;;5095821;22;20041;-65
2020/12/19 07:55:37;;;;;;;17.95;7.05;;;;;;;;;;5031990;28;20317;-66
2020/12/19 07:58:02;;;;;;;18.00;8.70;;;;;;;;;;5032243;28;20328;-65
2020/12/19 08:00:28;;;;;;;19.13;11.02;;;;;;;;;;5031961;28;20017;-65
2020/12/19 08:02:53;;;;;;;20.88;11.15;;;;;;;;;;5031802;28;20025;-66
2020/12/19 08:05:19;;;;;;;12.10;5.55;;;;;;;;;;5031768;28;20030;-66
2020/12/19 08:07:44;;;;;;;15.85;8.55;;;;;;;;;;5027413;28;20071;-66
2020/12/19 08:10:11;;;;;;;17.23;9.43;;;;;;;;;;5027828;28;20384;-66
2020/12/19 08:12:37;;;;;;;17.38;7.88;;;;;;;;;;5032220;28;20017;-66
2020/12/19 08:15:04;;;;;;;16.52;7.53;;;;;;;;;;5031782;28;20032;-66
2020/12/19 08:17:30;;;;;;;12.90;7.00;;;;;;;;;;5032309;28;20022;-67
2020/12/19 08:19:56;;;;;;;19.10;9.95;;;;;;;;;;5032165;28;20094;-67
2020/12/19 08:22:22;;;;;;;21.58;9.63;;;;;;;;;;5032518;28;20017;-67
2020/12/19 08:24:50;;;;;;;18.25;7.75;;;;;;;;;;5032299;28;20044;-65
2020/12/19 08:27:26;;;;;;;6.72;4.13;;;;;;;;;;5032060;28;20052;-67
2020/12/19 08:30:11;;;;;;;14.02;6.40;;;;;;;;;;5031512;28;20485;-67
2020/12/19 08:32:39;;;;;;;14.57;7.13;;;;;;;;;;5031495;28;20033;-67
2020/12/19 08:35:04;;;;;;;9.38;4.85;;;;;;;;;;5031683;28;20377;-67
2020/12/19 08:37:30;;;;;;;19.23;9.05;;;;;;;;;;5031187;28;20028;-66
2020/12/19 08:40:04;;;;;;;19.25;10.10;;;;;;;;;;5031525;28;20590;-67
2020/12/19 08:42:33;;;;;;;12.68;6.43;;;;;;;;;;5031601;28;20055;-66
2020/12/19 08:45:14;;;;;;;13.95;7.43;;;;;;;;;;5031414;28;20039;-67
2020/12/19 08:47:40;;;;;;;12.63;7.72;;;;;;;;;;5031528;28;20024;-67
2020/12/19 08:50:05;;;;;;;20.80;9.55;;;;;;;;;;5031162;28;20093;-68
2020/12/19 08:52:30;;;;;;;13.07;7.27;;;;;;;;;;5031686;28;20112;-67
2020/12/19 08:54:56;;;;;;;13.50;7.38;;;;;;;;;;5031524;28;20624;-67
2020/12/19 08:57:28;;;;;;;11.32;5.78;;;;;;;;;;5031125;28;20404;-67
2020/12/19 09:00:07;;;;;;;13.30;6.55;;;;;;;;;;5031234;28;20084;-68
2020/12/19 09:02:34;;;;;;;7.05;4.55;;;;;;;;;;5031168;28;20024;-67
2020/12/19 09:04:59;;;;;;;7.97;5.13;;;;;;;;;;5030736;28;20040;-66
2020/12/19 09:07:26;;;;;;;13.27;6.87;;;;;;;;;;5030905;28;20556;-67
2020/12/19 09:09:51;;;;;;;9.75;5.95;;;;;;;;;;5030749;28;20332;-67
2020/12/19 09:12:16;;;;;;;10.27;5.50;;;;;;;;;;5031142;28;20045;-66
2020/12/19 09:14:42;;;;;;;14.32;6.25;;;;;;;;;;5030940;28;20276;-67
2020/12/19 09:17:07;;;;;;;12.97;7.33;;;;;;;;;;5030717;28;20021;-68
2020/12/19 09:19:33;;;;;;;13.70;6.93;;;;;;;;;;5031603;28;20267;-68
2020/12/19 09:22:00;;;;;;;6.57;3.95;;;;;;;;;;5031920;28;20248;-68
2020/12/19 09:24:26;;;;;;;12.02;6.47;;;;;;;;;;5031145;28;20093;-67
2020/12/19 09:26:51;;;;;;;17.00;7.95;;;;;;;;;;5030959;28;20147;-67
2020/12/19 09:29:16;;;;;;;17.20;7.88;;;;;;;;;;5030653;28;20511;-68
2020/12/19 09:31:42;;;;;;;11.17;6.00;;;;;;;;;;5030421;28;20446;-67
2020/12/19 09:34:07;;;;;;;14.48;7.30;;;;;;;;;;5030387;28;20272;-68
2020/12/19 09:36:32;;;;;;;9.57;5.15;;;;;;;;;;5030237;28;20032;-67
2020/12/19 09:38:58;;;;;;;7.65;3.97;;;;;;;;;;5030245;28;20060;-66
2020/12/19 09:41:23;;;;;;;10.75;6.20;;;;;;;;;;5030658;28;20096;-67
2020/12/19 09:43:48;;;;;;;10.50;4.67;;;;;;;;;;5030493;28;20116;-67
2020/12/19 09:46:14;;;;;;;7.57;3.45;;;;;;;;;;5030484;28;20283;-67
2020/12/19 09:48:40;;;;;;;8.05;4.10;;;;;;;;;;5030445;28;20492;-68
2020/12/19 09:51:05;;;;;;;6.70;4.00;;;;;;;;;;5030692;28;20022;-68
2020/12/19 09:53:30;;;;;;;5.27;3.00;;;;;;;;;;5030707;28;20026;-67
2020/12/19 09:55:55;;;;;;;9.48;3.13;;;;;;;;;;5030347;28;20282;-67
2020/12/19 09:58:20;;;;;;;5.35;3.53;;;;;;;;;;5030536;28;20026;-67
2020/12/19 10:00:45;;;;;;;8.00;3.23;;;;;;;;;;5030024;28;20063;-68
2020/12/19 10:03:11;;;;;;;7.82;4.68;;;;;;;;;;5029891;28;20260;-67
2020/12/19 10:05:37;;;;;;;10.75;6.03;;;;;;;;;;5029821;28;20041;-68
2020/12/19 10:08:02;;;;;;;7.63;4.28;;;;;;;;;;5028329;28;20420;-67
2020/12/19 10:10:28;;;;;;;8.25;3.47;;;;;;;;;;5030152;28;20013;-68
2020/12/19 10:12:53;;;;;;;11.02;4.13;;;;;;;;;;5029917;28;20018;-66
2020/12/19 10:15:18;;;;;;;6.47;4.10;;;;;;;;;;5029917;28;20066;-67
2020/12/19 10:17:43;;;;;;;6.70;3.90;;;;;;;;;;5029998;28;20748;-66
2020/12/19 10:20:09;;;;;;;9.45;4.90;;;;;;;;;;5029942;28;20044;-67
2020/12/19 10:22:34;;;;;;;9.18;4.40;;;;;;;;;;5030733;28;20056;-68
2020/12/19 10:25:03;;;;;;;9.30;4.43;;;;;;;;;;5029466;28;20370;-66
2020/12/19 10:27:28;;;;;;;8.20;3.40;;;;;;;;;;5029664;28;20507;-68
2020/12/19 10:29:53;;;;;;;8.27;3.45;;;;;;;;;;5029184;28;20021;-67
2020/12/19 10:32:19;;;;;;;9.32;4.50;;;;;;;;;;5030089;28;20018;-67
2020/12/19 10:34:44;;;;;;;7.03;2.97;;;;;;;;;;5029461;28;20029;-67
2020/12/19 10:37:10;;;;;;;8.43;4.13;;;;;;;;;;5023974;28;20021;-67
2020/12/19 10:39:35;;;;;;;7.33;2.77;;;;;;;;;;5029314;28;20028;-67
2020/12/19 10:42:00;;;;;;;6.47;2.65;;;;;;;;;;5029045;28;20264;-67
2020/12/19 10:44:25;;;;;;;3.97;2.85;;;;;;;;;;5029649;28;20422;-67
2020/12/19 10:46:51;;;;;;;7.60;3.78;;;;;;;;;;5029708;28;20022;-68
2020/12/19 10:49:16;;;;;;;9.13;3.05;;;;;;;;;;5029190;28;20413;-67
2020/12/19 10:51:41;;;;;;;6.67;3.00;;;;;;;;;;5029824;28;20028;-68
2020/12/19 10:54:06;;;;;;;6.70;3.08;;;;;;;;;;5029904;28;20672;-67
2020/12/19 10:56:31;;;;;;;7.15;3.70;;;;;;;;;;5029369;28;20029;-68
2020/12/19 10:58:57;;;;;;;6.53;3.30;;;;;;;;;;5029354;28;20081;-67
2020/12/19 11:01:22;;;;;;;7.03;2.42;;;;;;;;;;5029504;28;20272;-68
2020/12/19 11:03:47;;;;;;;5.90;2.97;;;;;;;;;;5029225;28;20592;-67
2020/12/19 11:06:25;;;;;;;7.90;3.38;;;;;;;;;;5025187;28;20100;-68
2020/12/19 11:08:50;;;;;;;6.90;4.25;;;;;;;;;;5026553;28;20104;-67
2020/12/19 11:11:19;;;;;;;5.25;2.70;;;;;;;;;;5030065;28;20414;-67
2020/12/19 11:13:44;;;;;;;5.53;2.95;;;;;;;;;;5032348;28;20033;-68
2020/12/19 11:16:10;;;;;;;6.30;2.95;;;;;;;;;;5033692;28;20060;-68
2020/12/19 11:18:35;;;;;;;7.93;3.00;;;;;;;;;;5033966;28;20021;-67
2020/12/19 11:21:02;;;;;;;9.03;3.60;;;;;;;;;;5033612;28;20047;-67
2020/12/19 11:23:27;;;;;;;5.00;2.92;;;;;;;;;;5033930;28;20264;-67
2020/12/19 11:25:53;;;;;;;5.40;2.38;;;;;;;;;;5033903;28;20525;-68
2020/12/19 11:28:18;;;;;;;10.93;3.67;;;;;;;;;;5033742;28;20391;-68
2020/12/19 11:30:44;;;;;;;7.63;3.73;;;;;;;;;;5033645;28;20030;-68
2020/12/19 11:33:09;;;;;;;6.95;3.42;;;;;;;;;;5033461;28;20716;-68
2020/12/19 11:35:34;;;;;;;6.65;2.85;;;;;;;;;;5033513;28;20025;-69
2020/12/19 11:37:59;;;;;;;3.58;2.13;;;;;;;;;;5033151;28;20477;-68
2020/12/19 11:40:24;;;;;;;26.17;3.43;;;;;;;;;;5033467;28;20256;-68
2020/12/19 11:42:50;;;;;;;4.23;2.37;;;;;;;;;;5033637;28;20252;-68
2020/12/19 11:45:15;;;;;;;9.03;3.03;;;;;;;;;;5033583;28;20362;-68
2020/12/19 11:47:40;;;;;;;5.07;2.63;;;;;;;;;;5033564;28;20268;-68
2020/12/19 11:50:05;;;;;;;4.53;2.23;;;;;;;;;;5033190;28;20032;-68
2020/12/19 11:52:30;;;;;;;5.05;1.77;;;;;;;;;;5033351;28;20636;-67
2020/12/19 11:54:56;;;;;;;4.65;2.97;;;;;;;;;;5032852;28;20053;-68
2020/12/19 11:57:21;;;;;;;6.85;3.13;;;;;;;;;;5033326;28;20444;-68
2020/12/19 11:59:46;;;;;;;18.17;2.88;;;;;;;;;;5033050;28;20064;-68
2020/12/19 12:02:11;;;;;;;7.18;3.05;;;;;;;;;;5033064;28;20017;-67
2020/12/19 12:04:36;;;;;;;6.97;2.73;;;;;;;;;;5033217;28;20032;-68
2020/12/19 12:07:02;;;;;;;5.97;2.33;;;;;;;;;;5032579;28;20298;-65
2020/12/19 12:09:27;;;;;;;7.57;3.67;;;;;;;;;;5032475;28;20339;-65
2020/12/19 12:11:52;;;;;;;6.03;3.13;;;;;;;;;;5032960;28;20030;-66
2020/12/19 12:14:17;;;;;;;10.48;3.20;;;;;;;;;;5032864;28;20252;-66
2020/12/19 12:16:42;;;;;;;3.63;2.37;;;;;;;;;;5033003;28;20037;-66
2020/12/19 12:19:08;;;;;;;14.43;2.57;;;;;;;;;;5032611;28;20385;-66
2020/12/19 12:21:36;;;;;;;10.70;3.30;;;;;;;;;;5032967;28;20276;-66
2020/12/19 12:24:02;;;;;;;4.78;2.22;;;;;;;;;;5032206;28;20260;-65
2020/12/19 12:26:28;;;;;;;3.45;1.73;;;;;;;;;;5032271;28;20359;-67
2020/12/19 12:28:53;;;;;;;7.90;3.38;;;;;;;;;;5032833;28;20033;-67
2020/12/19 12:31:26;;;;;;;4.30;2.40;;;;;;;;;;5032652;28;20109;-67
2020/12/19 12:33:52;;;;;;;7.18;2.67;;;;;;;;;;5032709;28;20029;-67
2020/12/19 12:36:17;;;;;;;3.63;2.28;;;;;;;;;;5032304;28;20029;-67
2020/12/19 12:38:42;;;;;;;3.80;2.08;;;;;;;;;;5032395;28;20064;-66
2020/12/19 12:41:08;;;;;;;7.80;1.98;;;;;;;;;;5032070;28;20024;-67
2020/12/19 12:43:33;;;;;;;4.70;2.00;;;;;;;;;;5032509;28;20018;-67
2020/12/19 12:45:58;;;;;;;4.57;1.77;;;;;;;;;;5032155;28;20272;-67
2020/12/19 12:48:23;;;;;;;9.23;2.80;;;;;;;;;;5032386;28;20014;-66
2020/12/19 12:50:48;;;;;;;5.43;2.15;;;;;;;;;;5032016;28;20429;-67
2020/12/19 12:53:14;;;;;;;5.00;2.53;;;;;;;;;;5032064;28;20489;-67
2020/12/19 12:55:39;;;;;;;3.83;2.28;;;;;;;;;;5032359;28;20248;-67
2020/12/19 12:58:04;;;;;;;3.23;1.60;;;;;;;;;;5031154;28;20029;-67
2020/12/19 13:00:29;;;;;;;3.33;1.70;;;;;;;;;;5030842;28;20654;-68
2020/12/19 13:02:54;;;;;;;3.28;1.90;;;;;;;;;;5031251;28;20268;-67
2020/12/19 13:05:19;;;;;;;6.20;2.40;;;;;;;;;;5030389;28;20091;-68
2020/12/19 13:07:45;;;;;;;3.03;1.77;;;;;;;;;;5031114;28;20022;-66
2020/12/19 13:10:10;;;;;;;5.07;1.65;;;;;;;;;;5013156;28;20267;-68
2020/12/19 13:12:35;;;;;;;2.50;1.33;;;;;;;;;;5031367;28;20016;-66
2020/12/19 13:15:00;;;;;;;7.40;1.77;;;;;;;;;;5030480;28;20021;-68
2020/12/19 13:17:26;;;;;;;1.97;1.53;;;;;;;;;;5028216;28;20620;-68
2020/12/19 13:19:51;;;;;;;3.90;2.30;;;;;;;;;;5030910;28;20260;-68
2020/12/19 13:22:16;;;;;;;3.53;1.40;;;;;;;;;;5031588;28;20036;-67
2020/12/19 13:24:41;;;;;;;3.08;1.85;;;;;;;;;;5031599;28;20257;-68
2020/12/19 13:27:06;;;;;;;2.50;1.73;;;;;;;;;;5030886;28;20021;-68
2020/12/19 13:29:32;;;;;;;4.77;1.90;;;;;;;;;;5031331;28;20339;-68
2020/12/19 13:31:58;;;;;;;6.10;1.80;;;;;;;;;;5031498;28;20294;-68
2020/12/19 13:34:23;;;;;;;2.88;1.52;;;;;;;;;;5031485;28;20013;-68
2020/12/19 13:36:48;;;;;;;3.43;1.87;;;;;;;;;;5031171;28;20055;-67
2020/12/19 13:39:13;;;;;;;2.47;1.13;;;;;;;;;;5030952;28;21007;-68
2020/12/19 13:41:38;;;;;;;8.50;2.30;;;;;;;;;;5031242;28;20032;-68
2020/12/19 13:44:04;;;;;;;14.40;1.90;;;;;;;;;;5030903;28;20611;-68
2020/12/19 13:46:29;;;;;;;6.25;2.60;;;;;;;;;;5011919;28;20283;-67
2020/12/19 13:48:54;;;;;;;5.03;2.25;;;;;;;;;;5029922;28;20021;-68
2020/12/19 13:51:26;;;;;;;5.10;2.05;;;;;;;;;;5030388;28;20022;-67
2020/12/19 13:53:51;;;;;;;4.10;2.08;;;;;;;;;;5065357;22;20052;-73
2020/12/19 13:56:20;;;;;;;2.93;1.00;;;;;;;;;;5032972;28;20025;-73
2020/12/19 13:58:45;;;;;;;5.97;2.00;;;;;;;;;;5046995;28;20264;-72
2020/12/19 14:01:10;;;;;;;6.47;2.40;;;;;;;;;;5036395;28;20036;-72
2020/12/19 14:03:35;;;;;;;4.97;1.60;;;;;;;;;;5030262;28;20022;-72
2020/12/19 14:06:01;;;;;;;5.43;2.07;;;;;;;;;;5029255;28;20613;-72
2020/12/19 14:08:26;;;;;;;5.13;1.90;;;;;;;;;;5030115;28;20358;-71
2020/12/19 14:10:51;;;;;;;4.17;1.90;;;;;;;;;;5011731;28;20590;-71
2020/12/19 14:13:16;;;;;;;6.28;3.08;;;;;;;;;;5029441;28;20410;-71
2020/12/19 14:15:41;;;;;;;5.33;2.60;;;;;;;;;;5029713;28;20025;-73
2020/12/19 14:18:06;;;;;;;3.90;1.67;;;;;;;;;;5029860;28;20287;-72
2020/12/19 14:20:32;;;;;;;4.93;2.13;;;;;;;;;;5029420;28;20302;-72
2020/12/19 14:22:57;;;;;;;5.15;2.28;;;;;;;;;;5029576;28;20326;-72
2020/12/19 14:25:23;;;;;;;3.83;2.00;;;;;;;;;;5029906;28;20025;-72
2020/12/19 14:27:48;;;;;;;4.30;1.87;;;;;;;;;;5028734;28;20837;-72